sensor_id;sensor_type;location;lat;lon;timestamp;P1;durP1;ratioP1;P2;durP2;ratioP2
51949;SDS011;37974;53.218;6.640;2023-04-09T00:01:21;88.88;;;54.33;;
51949;SDS011;37974;53.218;6.640;2023-04-09T00:03:47;93.10;;;53.35;;
51949;SDS011;37974;53.218;6.640;2023-04-09T00:06:13;91.03;;;52.40;;
51949;SDS011;37974;53.218;6.640;2023-04-09T00:08:38;86.22;;;51.88;;
51949;SDS011;37974;53.218;6.640;2023-04-09T00:11:04;80.65;;;48.88;;
51949;SDS011;37974;53.218;6.640;2023-04-09T00:13:30;81.60;;;47.95;;
51949;SDS011;37974;53.218;6.640;2023-04-09T00:15:56;75.82;;;46.60;;
51949;SDS011;37974;53.218;6.640;2023-04-09T00:18:22;74.53;;;47.17;;
51949;SDS011;37974;53.218;6.640;2023-04-09T00:20:47;69.35;;;46.13;;
51949;SDS011;37974;53.218;6.640;2023-04-09T00:23:13;73.82;;;45.75;;
51949;SDS011;37974;53.218;6.640;2023-04-09T00:25:39;73.55;;;45.08;;
51949;SDS011;37974;53.218;6.640;2023-04-09T00:28:05;70.88;;;45.40;;
51949;SDS011;37974;53.218;6.640;2023-04-09T00:30:30;76.30;;;46.83;;
51949;SDS011;37974;53.218;6.640;2023-04-09T00:32:56;76.22;;;47.80;;
51949;SDS011;37974;53.218;6.640;2023-04-09T00:35:22;77.93;;;48.58;;
51949;SDS011;37974;53.218;6.640;2023-04-09T00:37:48;78.95;;;48.28;;
51949;SDS011;37974;53.218;6.640;2023-04-09T00:40:14;78.25;;;46.97;;
51949;SDS011;37974;53.218;6.640;2023-04-09T00:42:40;75.35;;;45.97;;
51949;SDS011;37974;53.218;6.640;2023-04-09T00:45:06;72.40;;;46.95;;
51949;SDS011;37974;53.218;6.640;2023-04-09T00:47:32;73.72;;;45.45;;
51949;SDS011;37974;53.218;6.640;2023-04-09T00:49:59;65.63;;;40.22;;
51949;SDS011;37974;53.218;6.640;2023-04-09T00:52:26;58.75;;;38.10;;
51949;SDS011;37974;53.218;6.640;2023-04-09T00:54:54;60.72;;;35.92;;
51949;SDS011;37974;53.218;6.640;2023-04-09T00:57:23;52.42;;;35.30;;
51949;SDS011;37974;53.218;6.640;2023-04-09T00:59:48;48.53;;;32.30;;
51949;SDS011;37974;53.218;6.640;2023-04-09T01:02:15;49.63;;;31.92;;
51949;SDS011;37974;53.218;6.640;2023-04-09T01:04:41;42.00;;;30.35;;
51949;SDS011;37974;53.218;6.640;2023-04-09T01:07:10;43.17;;;28.90;;
51949;SDS011;37974;53.218;6.640;2023-04-09T01:09:47;40.45;;;27.45;;
51949;SDS011;37974;53.218;6.640;2023-04-09T01:12:28;42.47;;;27.23;;
51949;SDS011;37974;53.218;6.640;2023-04-09T01:15:13;42.92;;;26.60;;
51949;SDS011;37974;53.218;6.640;2023-04-09T01:17:49;38.85;;;25.80;;
51949;SDS011;37974;53.218;6.640;2023-04-09T01:20:22;39.47;;;26.23;;
51949;SDS011;37974;53.218;6.640;2023-04-09T01:23:10;36.67;;;25.25;;
51949;SDS011;37974;53.218;6.640;2023-04-09T01:30:44;41.85;;;27.10;;
51949;SDS011;37974;53.218;6.640;2023-04-09T01:33:14;42.65;;;27.50;;
51949;SDS011;37974;53.218;6.640;2023-04-09T01:35:42;40.03;;;27.08;;
51949;SDS011;37974;53.218;6.640;2023-04-09T01:38:10;37.75;;;26.67;;
51949;SDS011;37974;53.218;6.640;2023-04-09T01:40:37;43.67;;;27.25;;
51949;SDS011;37974;53.218;6.640;2023-04-09T01:43:03;41.60;;;27.00;;
51949;SDS011;37974;53.218;6.640;2023-04-09T01:45:32;39.55;;;26.60;;
51949;SDS011;37974;53.218;6.640;2023-04-09T01:47:58;41.15;;;26.20;;
51949;SDS011;37974;53.218;6.640;2023-04-09T01:50:25;43.13;;;27.13;;
51949;SDS011;37974;53.218;6.640;2023-04-09T01:52:51;37.17;;;25.23;;
51949;SDS011;37974;53.218;6.640;2023-04-09T01:55:17;40.67;;;26.70;;
51949;SDS011;37974;53.218;6.640;2023-04-09T01:57:43;38.15;;;25.63;;
51949;SDS011;37974;53.218;6.640;2023-04-09T02:00:09;38.53;;;24.38;;
51949;SDS011;37974;53.218;6.640;2023-04-09T02:02:36;39.47;;;25.67;;
51949;SDS011;37974;53.218;6.640;2023-04-09T02:05:09;39.47;;;23.98;;
51949;SDS011;37974;53.218;6.640;2023-04-09T02:07:41;36.22;;;24.65;;
51949;SDS011;37974;53.218;6.640;2023-04-09T02:10:11;35.78;;;25.08;;
51949;SDS011;37974;53.218;6.640;2023-04-09T02:12:39;39.25;;;24.30;;
51949;SDS011;37974;53.218;6.640;2023-04-09T02:15:12;38.00;;;25.45;;
51949;SDS011;37974;53.218;6.640;2023-04-09T02:17:39;38.70;;;24.92;;
51949;SDS011;37974;53.218;6.640;2023-04-09T02:20:05;40.75;;;24.85;;
51949;SDS011;37974;53.218;6.640;2023-04-09T02:22:31;39.03;;;25.70;;
51949;SDS011;37974;53.218;6.640;2023-04-09T02:24:57;38.38;;;25.63;;
51949;SDS011;37974;53.218;6.640;2023-04-09T02:27:22;38.25;;;26.60;;
51949;SDS011;37974;53.218;6.640;2023-04-09T02:29:48;43.35;;;26.20;;
51949;SDS011;37974;53.218;6.640;2023-04-09T02:32:14;40.05;;;26.50;;
51949;SDS011;37974;53.218;6.640;2023-04-09T02:34:40;42.40;;;26.52;;
51949;SDS011;37974;53.218;6.640;2023-04-09T02:37:06;38.90;;;25.33;;
51949;SDS011;37974;53.218;6.640;2023-04-09T02:39:32;36.97;;;25.67;;
51949;SDS011;37974;53.218;6.640;2023-04-09T02:41:57;40.47;;;26.30;;
51949;SDS011;37974;53.218;6.640;2023-04-09T02:44:23;39.08;;;26.05;;
51949;SDS011;37974;53.218;6.640;2023-04-09T02:46:49;41.38;;;25.02;;
51949;SDS011;37974;53.218;6.640;2023-04-09T02:49:16;40.28;;;26.85;;
51949;SDS011;37974;53.218;6.640;2023-04-09T02:51:42;40.13;;;25.42;;
51949;SDS011;37974;53.218;6.640;2023-04-09T02:54:08;38.08;;;25.73;;
51949;SDS011;37974;53.218;6.640;2023-04-09T02:56:33;38.42;;;26.27;;
51949;SDS011;37974;53.218;6.640;2023-04-09T02:58:59;42.95;;;27.65;;
51949;SDS011;37974;53.218;6.640;2023-04-09T03:01:25;45.13;;;27.52;;
51949;SDS011;37974;53.218;6.640;2023-04-09T03:03:50;43.22;;;27.67;;
51949;SDS011;37974;53.218;6.640;2023-04-09T03:06:16;48.95;;;28.73;;
51949;SDS011;37974;53.218;6.640;2023-04-09T03:08:42;43.30;;;27.73;;
51949;SDS011;37974;53.218;6.640;2023-04-09T03:11:08;44.38;;;27.00;;
51949;SDS011;37974;53.218;6.640;2023-04-09T03:13:34;46.83;;;28.48;;
51949;SDS011;37974;53.218;6.640;2023-04-09T03:15:59;46.13;;;29.90;;
51949;SDS011;37974;53.218;6.640;2023-04-09T03:18:25;45.78;;;28.55;;
51949;SDS011;37974;53.218;6.640;2023-04-09T03:20:50;47.72;;;28.40;;
51949;SDS011;37974;53.218;6.640;2023-04-09T03:23:16;45.38;;;28.17;;
51949;SDS011;37974;53.218;6.640;2023-04-09T03:25:42;41.10;;;27.25;;
51949;SDS011;37974;53.218;6.640;2023-04-09T03:28:07;45.35;;;28.27;;
51949;SDS011;37974;53.218;6.640;2023-04-09T03:30:33;43.60;;;28.27;;
51949;SDS011;37974;53.218;6.640;2023-04-09T03:32:59;42.00;;;27.88;;
51949;SDS011;37974;53.218;6.640;2023-04-09T03:35:25;44.15;;;28.17;;
51949;SDS011;37974;53.218;6.640;2023-04-09T03:37:50;46.55;;;28.10;;
51949;SDS011;37974;53.218;6.640;2023-04-09T03:40:16;43.38;;;27.77;;
51949;SDS011;37974;53.218;6.640;2023-04-09T03:42:42;42.95;;;27.05;;
51949;SDS011;37974;53.218;6.640;2023-04-09T03:45:08;43.80;;;27.38;;
51949;SDS011;37974;53.218;6.640;2023-04-09T03:47:34;44.83;;;27.52;;
51949;SDS011;37974;53.218;6.640;2023-04-09T03:49:59;42.45;;;27.95;;
51949;SDS011;37974;53.218;6.640;2023-04-09T03:52:25;41.88;;;26.73;;
51949;SDS011;37974;53.218;6.640;2023-04-09T03:54:51;47.88;;;28.42;;
51949;SDS011;37974;53.218;6.640;2023-04-09T03:57:16;46.83;;;29.13;;
51949;SDS011;37974;53.218;6.640;2023-04-09T03:59:42;44.00;;;28.42;;
51949;SDS011;37974;53.218;6.640;2023-04-09T04:02:08;42.78;;;28.60;;
51949;SDS011;37974;53.218;6.640;2023-04-09T04:04:33;44.53;;;28.50;;
51949;SDS011;37974;53.218;6.640;2023-04-09T04:06:59;47.45;;;30.08;;
51949;SDS011;37974;53.218;6.640;2023-04-09T04:09:26;45.40;;;29.52;;
51949;SDS011;37974;53.218;6.640;2023-04-09T04:11:52;47.85;;;30.27;;
51949;SDS011;37974;53.218;6.640;2023-04-09T04:14:18;48.85;;;30.30;;
51949;SDS011;37974;53.218;6.640;2023-04-09T04:16:43;47.63;;;30.02;;
51949;SDS011;37974;53.218;6.640;2023-04-09T04:19:09;47.97;;;29.98;;
51949;SDS011;37974;53.218;6.640;2023-04-09T04:21:35;48.95;;;30.65;;
51949;SDS011;37974;53.218;6.640;2023-04-09T04:24:00;49.10;;;31.10;;
51949;SDS011;37974;53.218;6.640;2023-04-09T04:26:26;41.20;;;28.17;;
51949;SDS011;37974;53.218;6.640;2023-04-09T04:28:52;41.10;;;27.92;;
51949;SDS011;37974;53.218;6.640;2023-04-09T04:31:17;44.58;;;28.60;;
51949;SDS011;37974;53.218;6.640;2023-04-09T04:33:43;46.85;;;29.23;;
51949;SDS011;37974;53.218;6.640;2023-04-09T04:36:09;44.97;;;28.42;;
51949;SDS011;37974;53.218;6.640;2023-04-09T04:38:36;51.17;;;29.85;;
51949;SDS011;37974;53.218;6.640;2023-04-09T04:41:03;42.83;;;29.55;;
51949;SDS011;37974;53.218;6.640;2023-04-09T04:43:29;42.72;;;28.83;;
51949;SDS011;37974;53.218;6.640;2023-04-09T04:45:55;45.90;;;29.63;;
51949;SDS011;37974;53.218;6.640;2023-04-09T04:48:21;46.05;;;28.20;;
51949;SDS011;37974;53.218;6.640;2023-04-09T04:50:53;44.28;;;28.95;;
51949;SDS011;37974;53.218;6.640;2023-04-09T04:53:19;42.83;;;29.25;;
51949;SDS011;37974;53.218;6.640;2023-04-09T04:55:45;46.30;;;29.00;;
51949;SDS011;37974;53.218;6.640;2023-04-09T04:58:11;51.60;;;29.35;;
51949;SDS011;37974;53.218;6.640;2023-04-09T05:00:36;53.88;;;30.45;;
51949;SDS011;37974;53.218;6.640;2023-04-09T05:03:02;49.95;;;29.08;;
51949;SDS011;37974;53.218;6.640;2023-04-09T05:05:28;47.70;;;30.52;;
51949;SDS011;37974;53.218;6.640;2023-04-09T05:07:53;42.85;;;29.58;;
51949;SDS011;37974;53.218;6.640;2023-04-09T05:10:19;45.83;;;29.60;;
51949;SDS011;37974;53.218;6.640;2023-04-09T05:12:45;53.50;;;29.88;;
51949;SDS011;37974;53.218;6.640;2023-04-09T05:15:11;55.08;;;32.58;;
51949;SDS011;37974;53.218;6.640;2023-04-09T05:17:36;53.15;;;30.98;;
51949;SDS011;37974;53.218;6.640;2023-04-09T05:20:02;51.38;;;33.28;;
51949;SDS011;37974;53.218;6.640;2023-04-09T05:22:28;53.78;;;33.75;;
51949;SDS011;37974;53.218;6.640;2023-04-09T05:24:54;53.30;;;33.55;;
51949;SDS011;37974;53.218;6.640;2023-04-09T05:27:20;53.70;;;32.70;;
51949;SDS011;37974;53.218;6.640;2023-04-09T05:29:48;54.42;;;33.17;;
51949;SDS011;37974;53.218;6.640;2023-04-09T05:32:13;54.58;;;33.13;;
51949;SDS011;37974;53.218;6.640;2023-04-09T05:34:40;62.78;;;36.75;;
51949;SDS011;37974;53.218;6.640;2023-04-09T05:37:05;54.55;;;35.20;;
51949;SDS011;37974;53.218;6.640;2023-04-09T05:39:31;60.20;;;36.47;;
51949;SDS011;37974;53.218;6.640;2023-04-09T05:41:57;62.85;;;37.58;;
51949;SDS011;37974;53.218;6.640;2023-04-09T05:44:23;62.95;;;36.92;;
51949;SDS011;37974;53.218;6.640;2023-04-09T05:46:48;58.38;;;36.30;;
51949;SDS011;37974;53.218;6.640;2023-04-09T05:49:14;60.55;;;38.78;;
51949;SDS011;37974;53.218;6.640;2023-04-09T05:51:40;60.92;;;36.97;;
51949;SDS011;37974;53.218;6.640;2023-04-09T05:54:07;58.38;;;37.90;;
51949;SDS011;37974;53.218;6.640;2023-04-09T05:56:33;57.83;;;37.58;;
51949;SDS011;37974;53.218;6.640;2023-04-09T05:58:59;64.80;;;38.45;;
51949;SDS011;37974;53.218;6.640;2023-04-09T06:01:25;59.72;;;36.53;;
51949;SDS011;37974;53.218;6.640;2023-04-09T06:03:51;53.58;;;34.17;;
51949;SDS011;37974;53.218;6.640;2023-04-09T06:06:17;56.83;;;34.47;;
51949;SDS011;37974;53.218;6.640;2023-04-09T06:08:43;48.60;;;32.45;;
51949;SDS011;37974;53.218;6.640;2023-04-09T06:11:09;49.15;;;32.13;;
51949;SDS011;37974;53.218;6.640;2023-04-09T06:13:36;48.95;;;31.05;;
51949;SDS011;37974;53.218;6.640;2023-04-09T06:16:04;54.35;;;32.45;;
51949;SDS011;37974;53.218;6.640;2023-04-09T06:18:30;46.75;;;31.27;;
51949;SDS011;37974;53.218;6.640;2023-04-09T06:21:00;44.25;;;29.23;;
51949;SDS011;37974;53.218;6.640;2023-04-09T06:23:27;45.90;;;30.45;;
51949;SDS011;37974;53.218;6.640;2023-04-09T06:25:53;54.00;;;30.75;;
51949;SDS011;37974;53.218;6.640;2023-04-09T06:28:19;47.25;;;29.90;;
51949;SDS011;37974;53.218;6.640;2023-04-09T06:30:45;45.60;;;30.02;;
51949;SDS011;37974;53.218;6.640;2023-04-09T06:33:11;50.50;;;30.13;;
51949;SDS011;37974;53.218;6.640;2023-04-09T06:35:37;49.05;;;29.38;;
51949;SDS011;37974;53.218;6.640;2023-04-09T06:38:02;46.78;;;29.13;;
51949;SDS011;37974;53.218;6.640;2023-04-09T06:40:28;43.95;;;30.27;;
51949;SDS011;37974;53.218;6.640;2023-04-09T06:42:54;49.00;;;29.48;;
51949;SDS011;37974;53.218;6.640;2023-04-09T06:45:20;42.55;;;28.83;;
51949;SDS011;37974;53.218;6.640;2023-04-09T06:47:46;42.17;;;28.92;;
51949;SDS011;37974;53.218;6.640;2023-04-09T06:50:12;42.28;;;29.08;;
51949;SDS011;37974;53.218;6.640;2023-04-09T06:52:38;43.45;;;29.02;;
51949;SDS011;37974;53.218;6.640;2023-04-09T06:55:03;45.72;;;29.23;;
51949;SDS011;37974;53.218;6.640;2023-04-09T06:57:29;44.42;;;30.50;;
51949;SDS011;37974;53.218;6.640;2023-04-09T06:59:55;48.05;;;31.73;;
51949;SDS011;37974;53.218;6.640;2023-04-09T07:02:21;50.97;;;31.52;;
51949;SDS011;37974;53.218;6.640;2023-04-09T07:04:47;53.67;;;33.80;;
51949;SDS011;37974;53.218;6.640;2023-04-09T07:07:13;53.15;;;34.90;;
51949;SDS011;37974;53.218;6.640;2023-04-09T07:09:38;48.03;;;32.13;;
51949;SDS011;37974;53.218;6.640;2023-04-09T07:12:05;47.97;;;32.78;;
51949;SDS011;37974;53.218;6.640;2023-04-09T07:14:30;47.22;;;31.38;;
51949;SDS011;37974;53.218;6.640;2023-04-09T07:16:56;48.47;;;32.95;;
51949;SDS011;37974;53.218;6.640;2023-04-09T07:19:22;47.30;;;32.67;;
51949;SDS011;37974;53.218;6.640;2023-04-09T07:21:47;55.50;;;33.22;;
51949;SDS011;37974;53.218;6.640;2023-04-09T07:24:13;48.78;;;32.03;;
51949;SDS011;37974;53.218;6.640;2023-04-09T07:26:39;48.50;;;32.13;;
51949;SDS011;37974;53.218;6.640;2023-04-09T07:29:05;42.50;;;28.67;;
51949;SDS011;37974;53.218;6.640;2023-04-09T07:31:49;42.95;;;30.38;;
51949;SDS011;37974;53.218;6.640;2023-04-09T07:34:28;43.30;;;29.52;;
51949;SDS011;37974;53.218;6.640;2023-04-09T07:39:51;43.05;;;28.27;;
51949;SDS011;37974;53.218;6.640;2023-04-09T07:42:39;43.85;;;28.85;;
51949;SDS011;37974;53.218;6.640;2023-04-09T07:45:10;44.65;;;29.00;;
51949;SDS011;37974;53.218;6.640;2023-04-09T07:47:48;44.47;;;28.33;;
51949;SDS011;37974;53.218;6.640;2023-04-09T07:50:40;38.88;;;27.40;;
51949;SDS011;37974;53.218;6.640;2023-04-09T07:53:30;45.28;;;29.15;;
51949;SDS011;37974;53.218;6.640;2023-04-09T07:55:58;44.80;;;29.30;;
51949;SDS011;37974;53.218;6.640;2023-04-09T07:58:26;44.30;;;28.40;;
51949;SDS011;37974;53.218;6.640;2023-04-09T08:01:05;44.10;;;28.65;;
51949;SDS011;37974;53.218;6.640;2023-04-09T08:11:11;45.75;;;27.27;;
51949;SDS011;37974;53.218;6.640;2023-04-09T08:17:27;37.58;;;25.85;;
51949;SDS011;37974;53.218;6.640;2023-04-09T08:21:17;39.03;;;24.05;;
51949;SDS011;37974;53.218;6.640;2023-04-09T08:23:52;41.10;;;26.90;;
51949;SDS011;37974;53.218;6.640;2023-04-09T08:27:35;40.97;;;26.85;;
51949;SDS011;37974;53.218;6.640;2023-04-09T08:30:39;38.88;;;25.95;;
51949;SDS011;37974;53.218;6.640;2023-04-09T08:33:30;38.70;;;26.10;;
51949;SDS011;37974;53.218;6.640;2023-04-09T08:39:21;36.22;;;25.33;;
51949;SDS011;37974;53.218;6.640;2023-04-09T08:56:58;34.35;;;24.00;;
51949;SDS011;37974;53.218;6.640;2023-04-09T09:00:01;38.35;;;24.98;;
51949;SDS011;37974;53.218;6.640;2023-04-09T09:06:27;34.47;;;23.58;;
51949;SDS011;37974;53.218;6.640;2023-04-09T09:10:09;38.08;;;25.00;;
51949;SDS011;37974;53.218;6.640;2023-04-09T09:16:11;36.03;;;23.27;;
51949;SDS011;37974;53.218;6.640;2023-04-09T09:18:42;34.22;;;22.95;;
51949;SDS011;37974;53.218;6.640;2023-04-09T09:21:14;34.53;;;23.05;;
51949;SDS011;37974;53.218;6.640;2023-04-09T09:23:41;33.22;;;21.70;;
51949;SDS011;37974;53.218;6.640;2023-04-09T09:26:12;30.15;;;21.70;;
51949;SDS011;37974;53.218;6.640;2023-04-09T09:28:44;31.95;;;22.13;;
51949;SDS011;37974;53.218;6.640;2023-04-09T09:31:14;34.15;;;22.65;;
51949;SDS011;37974;53.218;6.640;2023-04-09T09:33:41;32.47;;;22.65;;
51949;SDS011;37974;53.218;6.640;2023-04-09T09:36:07;31.65;;;22.02;;
51949;SDS011;37974;53.218;6.640;2023-04-09T09:38:57;31.20;;;22.13;;
51949;SDS011;37974;53.218;6.640;2023-04-09T09:41:23;32.08;;;22.45;;
51949;SDS011;37974;53.218;6.640;2023-04-09T09:43:50;32.60;;;23.38;;
51949;SDS011;37974;53.218;6.640;2023-04-09T09:46:16;35.60;;;23.20;;
51949;SDS011;37974;53.218;6.640;2023-04-09T09:48:42;33.60;;;22.80;;
51949;SDS011;37974;53.218;6.640;2023-04-09T09:51:11;34.95;;;23.95;;
51949;SDS011;37974;53.218;6.640;2023-04-09T09:53:39;33.80;;;23.45;;
51949;SDS011;37974;53.218;6.640;2023-04-09T09:56:11;33.40;;;24.00;;
51949;SDS011;37974;53.218;6.640;2023-04-09T09:58:40;30.90;;;22.20;;
51949;SDS011;37974;53.218;6.640;2023-04-09T10:01:28;33.97;;;24.85;;
51949;SDS011;37974;53.218;6.640;2023-04-09T10:03:55;35.97;;;25.27;;
51949;SDS011;37974;53.218;6.640;2023-04-09T10:06:23;31.02;;;23.38;;
51949;SDS011;37974;53.218;6.640;2023-04-09T10:08:51;32.30;;;23.55;;
51949;SDS011;37974;53.218;6.640;2023-04-09T10:11:20;32.42;;;23.63;;
51949;SDS011;37974;53.218;6.640;2023-04-09T10:13:54;39.05;;;23.67;;
51949;SDS011;37974;53.218;6.640;2023-04-09T10:16:23;33.70;;;24.10;;
51949;SDS011;37974;53.218;6.640;2023-04-09T10:18:51;32.22;;;23.45;;
51949;SDS011;37974;53.218;6.640;2023-04-09T10:21:23;37.25;;;23.58;;
51949;SDS011;37974;53.218;6.640;2023-04-09T10:26:32;33.08;;;23.33;;
51949;SDS011;37974;53.218;6.640;2023-04-09T10:29:06;33.28;;;23.40;;
51949;SDS011;37974;53.218;6.640;2023-04-09T10:31:53;32.85;;;24.25;;
51949;SDS011;37974;53.218;6.640;2023-04-09T10:34:27;34.95;;;24.38;;
51949;SDS011;37974;53.218;6.640;2023-04-09T10:36:55;34.47;;;25.35;;
51949;SDS011;37974;53.218;6.640;2023-04-09T10:39:26;33.40;;;24.25;;
51949;SDS011;37974;53.218;6.640;2023-04-09T10:41:53;34.38;;;25.33;;
51949;SDS011;37974;53.218;6.640;2023-04-09T10:46:48;33.90;;;24.33;;
51949;SDS011;37974;53.218;6.640;2023-04-09T10:49:18;31.70;;;23.75;;
51949;SDS011;37974;53.218;6.640;2023-04-09T10:52:08;31.60;;;23.55;;
51949;SDS011;37974;53.218;6.640;2023-04-09T10:57:09;28.98;;;22.65;;
51949;SDS011;37974;53.218;6.640;2023-04-09T10:59:46;33.55;;;23.77;;
51949;SDS011;37974;53.218;6.640;2023-04-09T11:04:50;32.45;;;23.75;;
51949;SDS011;37974;53.218;6.640;2023-04-09T11:07:18;30.02;;;23.70;;
51949;SDS011;37974;53.218;6.640;2023-04-09T11:09:46;30.98;;;23.00;;
51949;SDS011;37974;53.218;6.640;2023-04-09T11:12:12;32.08;;;22.77;;
51949;SDS011;37974;53.218;6.640;2023-04-09T11:14:37;32.78;;;23.45;;
51949;SDS011;37974;53.218;6.640;2023-04-09T11:17:03;30.27;;;22.92;;
51949;SDS011;37974;53.218;6.640;2023-04-09T11:19:32;30.30;;;23.25;;
51949;SDS011;37974;53.218;6.640;2023-04-09T11:21:58;33.97;;;23.33;;
51949;SDS011;37974;53.218;6.640;2023-04-09T11:24:24;31.75;;;22.10;;
51949;SDS011;37974;53.218;6.640;2023-04-09T11:26:49;30.15;;;22.45;;
51949;SDS011;37974;53.218;6.640;2023-04-09T11:29:15;29.58;;;22.40;;
51949;SDS011;37974;53.218;6.640;2023-04-09T11:31:43;34.53;;;23.88;;
51949;SDS011;37974;53.218;6.640;2023-04-09T11:34:09;27.63;;;21.25;;
51949;SDS011;37974;53.218;6.640;2023-04-09T11:36:36;29.45;;;20.90;;
51949;SDS011;37974;53.218;6.640;2023-04-09T11:39:03;27.77;;;20.65;;
51949;SDS011;37974;53.218;6.640;2023-04-09T11:41:34;29.02;;;20.30;;
51949;SDS011;37974;53.218;6.640;2023-04-09T11:44:02;26.83;;;21.15;;
51949;SDS011;37974;53.218;6.640;2023-04-09T11:46:33;27.77;;;22.10;;
51949;SDS011;37974;53.218;6.640;2023-04-09T11:48:59;30.42;;;21.23;;
51949;SDS011;37974;53.218;6.640;2023-04-09T11:51:25;29.95;;;21.15;;
51949;SDS011;37974;53.218;6.640;2023-04-09T11:54:01;26.88;;;20.58;;
51949;SDS011;37974;53.218;6.640;2023-04-09T11:56:28;27.83;;;20.50;;
51949;SDS011;37974;53.218;6.640;2023-04-09T11:58:55;27.13;;;19.92;;
51949;SDS011;37974;53.218;6.640;2023-04-09T12:01:21;27.02;;;19.50;;
51949;SDS011;37974;53.218;6.640;2023-04-09T12:03:53;26.25;;;19.38;;
51949;SDS011;37974;53.218;6.640;2023-04-09T12:06:19;27.83;;;20.08;;
51949;SDS011;37974;53.218;6.640;2023-04-09T12:08:53;26.52;;;19.70;;
51949;SDS011;37974;53.218;6.640;2023-04-09T12:11:25;27.27;;;19.45;;
51949;SDS011;37974;53.218;6.640;2023-04-09T12:13:59;25.73;;;19.02;;
51949;SDS011;37974;53.218;6.640;2023-04-09T12:16:28;28.92;;;19.88;;
51949;SDS011;37974;53.218;6.640;2023-04-09T12:18:59;28.92;;;19.75;;
51949;SDS011;37974;53.218;6.640;2023-04-09T12:24:13;26.63;;;19.50;;
51949;SDS011;37974;53.218;6.640;2023-04-09T12:26:40;24.98;;;18.77;;
51949;SDS011;37974;53.218;6.640;2023-04-09T12:29:05;23.02;;;17.52;;
51949;SDS011;37974;53.218;6.640;2023-04-09T12:31:31;24.52;;;18.65;;
51949;SDS011;37974;53.218;6.640;2023-04-09T12:33:57;25.70;;;18.17;;
51949;SDS011;37974;53.218;6.640;2023-04-09T12:36:22;22.40;;;16.58;;
51949;SDS011;37974;53.218;6.640;2023-04-09T12:38:48;23.05;;;17.25;;
51949;SDS011;37974;53.218;6.640;2023-04-09T12:41:15;23.33;;;17.33;;
51949;SDS011;37974;53.218;6.640;2023-04-09T12:43:41;27.20;;;18.30;;
51949;SDS011;37974;53.218;6.640;2023-04-09T12:46:08;22.38;;;16.17;;
51949;SDS011;37974;53.218;6.640;2023-04-09T12:48:34;20.73;;;15.13;;
51949;SDS011;37974;53.218;6.640;2023-04-09T12:51:00;19.17;;;14.13;;
51949;SDS011;37974;53.218;6.640;2023-04-09T12:53:26;23.30;;;14.93;;
51949;SDS011;37974;53.218;6.640;2023-04-09T12:55:52;23.08;;;16.15;;
51949;SDS011;37974;53.218;6.640;2023-04-09T12:58:18;21.85;;;15.57;;
51949;SDS011;37974;53.218;6.640;2023-04-09T13:00:44;20.50;;;14.35;;
51949;SDS011;37974;53.218;6.640;2023-04-09T13:03:10;20.45;;;14.68;;
51949;SDS011;37974;53.218;6.640;2023-04-09T13:05:36;20.98;;;15.18;;
51949;SDS011;37974;53.218;6.640;2023-04-09T13:08:02;19.23;;;14.60;;
51949;SDS011;37974;53.218;6.640;2023-04-09T13:10:28;22.45;;;15.07;;
51949;SDS011;37974;53.218;6.640;2023-04-09T13:12:55;22.05;;;15.75;;
51949;SDS011;37974;53.218;6.640;2023-04-09T13:15:21;18.00;;;12.70;;
51949;SDS011;37974;53.218;6.640;2023-04-09T13:17:47;16.95;;;12.90;;
51949;SDS011;37974;53.218;6.640;2023-04-09T13:20:13;16.10;;;11.18;;
51949;SDS011;37974;53.218;6.640;2023-04-09T13:22:39;18.17;;;13.45;;
51949;SDS011;37974;53.218;6.640;2023-04-09T13:25:04;19.45;;;13.48;;
51949;SDS011;37974;53.218;6.640;2023-04-09T13:27:30;20.60;;;14.85;;
51949;SDS011;37974;53.218;6.640;2023-04-09T13:29:56;19.02;;;14.45;;
51949;SDS011;37974;53.218;6.640;2023-04-09T13:32:22;22.02;;;15.75;;
51949;SDS011;37974;53.218;6.640;2023-04-09T13:34:48;22.20;;;15.18;;
51949;SDS011;37974;53.218;6.640;2023-04-09T13:37:14;18.77;;;14.65;;
51949;SDS011;37974;53.218;6.640;2023-04-09T13:39:40;19.50;;;14.57;;
51949;SDS011;37974;53.218;6.640;2023-04-09T13:42:07;20.15;;;14.80;;
51949;SDS011;37974;53.218;6.640;2023-04-09T13:44:32;23.08;;;15.32;;
51949;SDS011;37974;53.218;6.640;2023-04-09T13:46:59;18.83;;;14.02;;
51949;SDS011;37974;53.218;6.640;2023-04-09T13:49:25;19.90;;;14.07;;
51949;SDS011;37974;53.218;6.640;2023-04-09T13:51:51;17.30;;;13.73;;
51949;SDS011;37974;53.218;6.640;2023-04-09T13:54:17;18.58;;;13.18;;
51949;SDS011;37974;53.218;6.640;2023-04-09T13:56:43;17.40;;;12.40;;
51949;SDS011;37974;53.218;6.640;2023-04-09T13:59:10;17.60;;;12.57;;
51949;SDS011;37974;53.218;6.640;2023-04-09T14:01:36;17.42;;;12.88;;
51949;SDS011;37974;53.218;6.640;2023-04-09T14:04:02;17.73;;;13.65;;
51949;SDS011;37974;53.218;6.640;2023-04-09T14:06:27;19.77;;;14.10;;
51949;SDS011;37974;53.218;6.640;2023-04-09T14:08:53;18.73;;;13.57;;
51949;SDS011;37974;53.218;6.640;2023-04-09T14:11:19;18.67;;;14.45;;
51949;SDS011;37974;53.218;6.640;2023-04-09T14:13:45;20.10;;;13.90;;
51949;SDS011;37974;53.218;6.640;2023-04-09T14:16:11;19.70;;;13.65;;
51949;SDS011;37974;53.218;6.640;2023-04-09T14:18:36;18.98;;;14.13;;
51949;SDS011;37974;53.218;6.640;2023-04-09T14:21:04;22.80;;;13.85;;
51949;SDS011;37974;53.218;6.640;2023-04-09T14:23:32;17.88;;;13.27;;
51949;SDS011;37974;53.218;6.640;2023-04-09T14:25:59;16.13;;;12.75;;
51949;SDS011;37974;53.218;6.640;2023-04-09T14:28:27;17.20;;;12.77;;
51949;SDS011;37974;53.218;6.640;2023-04-09T14:30:52;17.25;;;12.63;;
51949;SDS011;37974;53.218;6.640;2023-04-09T14:33:18;16.83;;;11.95;;
51949;SDS011;37974;53.218;6.640;2023-04-09T14:35:44;17.27;;;11.90;;
51949;SDS011;37974;53.218;6.640;2023-04-09T14:38:10;19.15;;;12.90;;
51949;SDS011;37974;53.218;6.640;2023-04-09T14:40:36;19.30;;;12.57;;
51949;SDS011;37974;53.218;6.640;2023-04-09T14:43:02;15.75;;;11.85;;
51949;SDS011;37974;53.218;6.640;2023-04-09T14:45:27;17.15;;;11.77;;
51949;SDS011;37974;53.218;6.640;2023-04-09T14:47:53;19.35;;;12.35;;
51949;SDS011;37974;53.218;6.640;2023-04-09T14:50:19;16.75;;;12.52;;
51949;SDS011;37974;53.218;6.640;2023-04-09T14:52:45;16.80;;;12.50;;
51949;SDS011;37974;53.218;6.640;2023-04-09T14:55:12;17.90;;;12.35;;
51949;SDS011;37974;53.218;6.640;2023-04-09T14:57:38;16.70;;;12.43;;
51949;SDS011;37974;53.218;6.640;2023-04-09T15:00:06;16.17;;;12.52;;
51949;SDS011;37974;53.218;6.640;2023-04-09T15:02:32;17.95;;;12.98;;
51949;SDS011;37974;53.218;6.640;2023-04-09T15:05:00;18.20;;;12.55;;
51949;SDS011;37974;53.218;6.640;2023-04-09T15:07:27;16.63;;;12.00;;
51949;SDS011;37974;53.218;6.640;2023-04-09T15:09:56;17.05;;;11.88;;
51949;SDS011;37974;53.218;6.640;2023-04-09T15:12:24;17.38;;;11.73;;
51949;SDS011;37974;53.218;6.640;2023-04-09T15:14:51;16.85;;;11.45;;
51949;SDS011;37974;53.218;6.640;2023-04-09T15:17:17;17.13;;;12.32;;
51949;SDS011;37974;53.218;6.640;2023-04-09T15:19:43;17.00;;;12.07;;
51949;SDS011;37974;53.218;6.640;2023-04-09T15:22:08;16.38;;;12.77;;
51949;SDS011;37974;53.218;6.640;2023-04-09T15:24:37;16.90;;;12.23;;
51949;SDS011;37974;53.218;6.640;2023-04-09T15:27:03;16.92;;;11.35;;